Meteo Giornale » Osservazioni meteo Stati Uniti (USA) » Santa Maria
ore: 17:51 - Osservazioni Meteo Santa Maria
Lat. 34° 53' N Lon. 120° 26' W Alt. 78 metri s.l.m.
18 °C
Sereno
Temp. 24 Ore
13 °C
21 °C
Ovest/Nord-Ovest
20.3 Km/h
Dew point 12 °C
Umidità 67 %
Visibilità 14 Km
Il sole sorge alle ore 06:34
Il sole tramonta alle ore 19:29
| Data e Ora | Cielo e Fenomeni | T °C | DP °C | Um. % | Pres. hPa | Vis. km | Vento km/h | |
|---|---|---|---|---|---|---|---|---|
| Oggi h: 17:51 | Sereno | 18 | 12 | 67 | 1014 | 14 | O/NO 20.3 | |
| Oggi h: 16:51 | Sereno | 19 | 11 | 59 | 1014 | 13 | O/NO 20.3 | |
| Oggi h: 15:51 | Sereno | 19 | 11 | 59 | 1014 | 13 | O/NO 24 | |
| Oggi h: 14:51 | Sereno | 18 | 11 | 63 | 1014 | 14 | O/NO 24 | |
| Oggi h: 13:51 | Sereno | 21 | 12 | 56 | 1015 | 14 | NO 20.3 | |
| Oggi h: 12:51 | Sereno | 20 | 12 | 59 | 1015 | 13 | O/NO 14.8 | |
| Oggi h: 11:51 | Poco Nuvoloso | 19 | 11 | 59 | 1016 | 14 | O/SO 9.3 | |
| Oggi h: 11:25 | Poco Nuvoloso | 18 | 11 | 63 | 1016 | 13 | N/NO 11.1 | |
| Oggi h: 11:22 | Nuvoloso | 18 | 11 | 63 | 1016 | 13 | N/NO 11.1 | |
| Oggi h: 10:51 | Poco Nuvoloso | 17 | 11 | 67 | 1016 | 13 | O/NO 11.1 | |
| Oggi h: 09:51 | Coperto | 15 | 11 | 76 | 1016 | 14 | O/NO 7.4 | |
| Oggi h: 08:51 | Coperto | 14 | 11 | 82 | 1015 | 11 | NO 9.3 | |
| Oggi h: 07:51 | Foschia | 14 | 11 | 82 | 1015 | 10 | NO 14.8 | |
| Oggi h: 06:51 | Coperto | 14 | 11 | 82 | 1014 | 11 | N 5.5 | |
| Oggi h: 05:51 | Coperto | 14 | 12 | 87 | 1014 | 13 | NO 7.4 | |
| Oggi h: 05:44 | Coperto | 14 | 12 | 87 | 1014 | 13 | O 9.3 | |
| Oggi h: 04:51 | Foschia | 14 | 12 | 87 | 1014 | 10 | N 5.5 | |
| Oggi h: 03:51 | Foschia | 14 | 12 | 87 | 1014 | 10 | N 0 | |
| Oggi h: 03:29 | Foschia | 14 | 12 | 87 | 1014 | 10 | N 5.5 | |
| Oggi h: 03:04 | Coperto | 14 | 12 | 87 | 1014 | 11 | N/NO 7.4 | |
| Oggi h: 02:51 | Coperto | 14 | 12 | 87 | 1014 | 11 | O/NO 9.3 | |
| Oggi h: 02:31 | Foschia | 14 | 12 | 87 | 1014 | 10 | O/NO 11.1 | |
| Oggi h: 02:00 | Foschia | 14 | 12 | 87 | 1014 | 10 | NO 9.3 | |
| Oggi h: 01:51 | Foschia | 14 | 12 | 87 | 1014 | 10 | O/NO 7.4 | |
| Oggi h: 01:08 | Foschia | 14 | 12 | 87 | 1014 | 10 | O/NO 7.4 | |
| Oggi h: 00:51 | Foschia | 14 | 13 | 93 | 1014 | 10 | O/NO 9.3 | |
| Oggi h: 00:07 | Foschia | 13 | 12 | 93 | 1014 | 10 | N 0 | |
| Ieri h: 23:51 | Foschia | 13 | 12 | 93 | 1014 | 10 | O/NO 7.4 | |
| Ieri h: 22:51 | Foschia | 13 | 12 | 93 | 1014 | 10 | O 11.1 | |
| Ieri h: 21:51 | Foschia | 14 | 13 | 93 | 1014 | 10 | O 11.1 | |
| Ieri h: 20:51 | Sereno | 14 | 13 | 93 | 1014 | 11 | O 16.7 | |
| Ieri h: 19:51 | Sereno | 15 | 13 | 87 | 1013 | 13 | O/NO 16.7 | |
| Ieri h: 18:51 | Sereno | 17 | 13 | 77 | 1013 | 11 | O/NO 22.2 | |



